Time;durP1;ratioP1;P1;durP2;ratioP2;P2;SDS_P1;SDS_P2;PMS_P1;PMS_P2;Temp;Humidity;BMP_temperature;BMP_pressure;BME280_temperature;BME280_humidity;BME280_pressure;Samples;Min_cycle;Max_cycle;Signal;HPM_P1;HPM_P2
2023/01/21 00:00:57;;;;;;;93.20;47.28;;;;;;;-1.64;100.00;99900.59;5015931;28;20026;-77
2023/01/21 00:03:23;;;;;;;93.40;47.50;;;;;;;-1.57;100.00;99902.31;5015145;28;20449;-77
2023/01/21 00:05:48;;;;;;;83.95;44.92;;;;;;;-1.65;100.00;99890.34;5015568;28;20026;-77
2023/01/21 00:08:14;;;;;;;94.10;48.75;;;;;;;-1.59;100.00;99908.28;5015498;28;20412;-77
2023/01/21 00:10:39;;;;;;;96.93;49.70;;;;;;;-1.58;100.00;99905.72;5015246;28;20058;-77
2023/01/21 00:13:04;;;;;;;91.30;49.28;;;;;;;-1.57;100.00;99902.31;5015280;28;20109;-76
2023/01/21 00:15:29;;;;;;;90.68;49.67;;;;;;;-1.53;100.00;99915.97;5015227;28;20053;-77
2023/01/21 00:17:55;;;;;;;98.18;49.33;;;;;;;-1.59;100.00;99901.47;5015488;28;20026;-76
2023/01/21 00:20:20;;;;;;;83.18;47.40;;;;;;;-1.53;100.00;99918.53;5015072;28;20026;-77
2023/01/21 00:22:46;;;;;;;96.55;46.90;;;;;;;-1.53;100.00;99910.88;5013900;28;20458;-77
2023/01/21 00:25:11;;;;;;;93.38;48.15;;;;;;;-1.49;100.00;99920.25;5015063;28;20365;-77
2023/01/21 00:27:36;;;;;;;86.28;46.85;;;;;;;-1.45;100.00;99919.44;5014709;28;20072;-76
2023/01/21 00:30:03;;;;;;;88.13;47.45;;;;;;;-1.54;100.00;99902.34;5015012;28;20034;-77
2023/01/21 00:32:28;;;;;;;87.22;46.63;;;;;;;-1.49;100.00;99922.81;5015110;28;20025;-77
2023/01/21 00:34:53;;;;;;;86.97;44.67;;;;;;;-1.61;100.00;99892.06;5014960;28;20029;-77
2023/01/21 00:37:19;;;;;;;87.75;44.83;;;;;;;-1.60;100.00;99897.22;5014631;28;20022;-76
2023/01/21 00:39:44;;;;;;;90.78;45.13;;;;;;;-1.54;100.00;99924.47;5014865;28;20097;-76
2023/01/21 00:42:12;;;;;;;86.68;44.08;;;;;;;-1.53;100.00;99927.03;5015228;28;20072;-77
2023/01/21 00:44:38;;;;;;;84.30;44.78;;;;;;;-1.49;100.00;99933.03;5014905;28;20100;-77
2023/01/21 00:47:04;;;;;;;87.00;45.65;;;;;;;-1.54;100.00;99930.44;5014740;28;20168;-77
2023/01/21 00:49:30;;;;;;;92.60;45.53;;;;;;;-1.51;100.00;99934.72;5014531;28;20101;-77
2023/01/21 00:51:56;;;;;;;94.85;45.17;;;;;;;-1.45;100.00;99944.13;5014657;28;20484;-77
2023/01/21 00:54:22;;;;;;;99.95;47.83;;;;;;;-1.43;100.00;99952.63;5014332;28;20037;-77
2023/01/21 00:56:47;;;;;;;104.00;49.70;;;;;;;-1.53;100.00;99938.97;5014638;28;20021;-77
2023/01/21 00:59:12;;;;;;;100.55;48.70;;;;;;;-1.47;100.00;99953.50;5013335;28;20037;-76
2023/01/21 01:01:38;;;;;;;110.07;52.15;;;;;;;-1.58;100.00;99930.41;5013369;28;20026;-77
2023/01/21 01:04:05;;;;;;;92.68;47.10;;;;;;;-1.58;100.00;99944.03;5014648;28;20022;-76
2023/01/21 01:06:31;;;;;;;92.75;47.30;;;;;;;-1.58;100.00;99941.47;5014108;28;20024;-77
2023/01/21 01:08:57;;;;;;;97.30;44.05;;;;;;;-1.53;100.00;99942.38;5014552;28;20088;-76
2023/01/21 01:11:25;;;;;;;90.68;44.20;;;;;;;-1.48;100.00;99941.53;5013906;28;20430;-76
2023/01/21 01:13:51;;;;;;;96.80;46.75;;;;;;;-1.54;100.00;99943.22;5014348;28;20076;-76
2023/01/21 01:16:17;;;;;;;97.25;45.63;;;;;;;-1.46;100.00;99956.03;5014535;28;20022;-76
2023/01/21 01:18:42;;;;;;;95.88;47.28;;;;;;;-1.51;100.00;99958.56;5013933;28;20026;-76
2023/01/21 01:21:13;;;;;;;103.45;46.78;;;;;;;-1.49;100.00;99963.69;5014176;28;20032;-77
2023/01/21 01:23:38;;;;;;;102.63;47.10;;;;;;;-1.52;100.00;99976.41;5013518;28;20030;-76
2023/01/21 01:26:06;;;;;;;106.35;47.35;;;;;;;-1.52;100.00;99968.75;5014099;28;20076;-76
2023/01/21 01:28:33;;;;;;;99.28;46.42;;;;;;;-1.49;100.00;99975.59;5013634;28;20064;-76
2023/01/21 01:30:59;;;;;;;96.20;44.78;;;;;;;-1.53;100.00;99955.13;5013961;28;20482;-76
2023/01/21 01:33:25;;;;;;;103.43;48.10;;;;;;;-1.47;100.00;99972.22;5013604;28;20084;-77
2023/01/21 01:35:50;;;;;;;104.38;45.65;;;;;;;-1.52;100.00;99966.22;5013735;28;20444;-77
2023/01/21 01:38:19;;;;;;;103.13;45.65;;;;;;;-1.55;100.00;99958.53;5013586;28;20022;-76
2023/01/21 01:40:47;;;;;;;100.38;45.25;;;;;;;-1.54;100.00;99966.22;5013871;28;20030;-76
2023/01/21 01:43:18;;;;;;;114.88;48.67;;;;;;;-1.51;100.00;99968.78;5013910;28;20334;-77
2023/01/21 01:45:44;;;;;;;98.63;43.90;;;;;;;-1.45;100.00;99978.19;5012092;28;20023;-76
2023/01/21 01:48:15;;;;;;;94.95;44.15;;;;;;;-1.54;100.00;99957.69;5013490;28;20076;-77
2023/01/21 01:50:41;;;;;;;90.35;43.13;;;;;;;-1.46;100.00;99962.84;5013233;28;20234;-77
2023/01/21 01:53:09;;;;;;;91.32;44.53;;;;;;;-1.49;100.00;99962.84;5013453;28;20033;-77
2023/01/21 01:55:36;;;;;;;94.95;45.70;;;;;;;-1.55;100.00;99958.53;5013448;28;20034;-76
2023/01/21 01:58:07;;;;;;;98.88;47.28;;;;;;;-1.52;100.00;99968.75;5012134;28;20025;-76
2023/01/21 02:00:33;;;;;;;;;;;;;;;-1.46;100.00;99966.25;5013682;28;20034;-77
2023/01/21 02:05:43;;;;;;;90.25;43.67;;;;;;;-1.49;100.00;99958.56;5012961;28;20057;-77
2023/01/21 02:08:10;;;;;;;86.72;41.97;;;;;;;-1.57;100.00;99955.09;5013398;28;20056;-77
2023/01/21 02:10:36;;;;;;;89.20;43.20;;;;;;;-1.52;100.00;99961.97;5013033;28;20466;-77
2023/01/21 02:13:01;;;;;;;91.30;42.53;;;;;;;-1.53;100.00;99960.25;5013182;28;20026;-77
2023/01/21 02:15:49;;;;;;;88.50;42.97;;;;;;;-1.52;100.00;99961.97;5012735;28;20370;-77
2023/01/21 02:18:28;;;;;;;82.57;39.45;;;;;;;-1.52;100.00;99961.09;5013052;28;20485;-76
2023/01/21 02:21:02;;;;;;;81.20;40.38;;;;;;;-1.51;100.00;99960.28;5013193;28;20026;-77
2023/01/21 02:24:05;;;;;;;82.30;39.30;;;;;;;-1.55;100.00;99953.44;5012721;28;20033;-77
2023/01/21 02:26:49;;;;;;;84.22;40.58;;;;;;;-1.46;100.00;99966.25;5012844;28;20014;-77
2023/01/21 02:29:35;;;;;;;86.20;41.45;;;;;;;-1.46;100.00;99961.16;5012746;28;20068;-77
2023/01/21 02:32:36;;;;;;;91.75;44.45;;;;;;;-1.45;100.00;99959.44;5012815;28;20041;-77
2023/01/21 02:35:10;;;;;;;124.38;54.40;;;;;;;-1.45;100.00;99956.91;5010303;28;20046;-77
2023/01/21 02:37:45;;;;;;;82.32;40.15;;;;;;;-1.47;100.00;99964.56;5010015;28;20416;-77
2023/01/21 02:40:13;;;;;;;86.97;39.60;;;;;;;-1.52;100.00;99966.22;5010200;28;20037;-76
2023/01/21 02:42:49;;;;;;;78.53;38.95;;;;;;;-1.54;100.00;99958.53;5009948;28;20089;-77
2023/01/21 02:45:20;;;;;;;83.68;39.50;;;;;;;-1.49;100.00;99955.16;5010057;28;20037;-77
2023/01/21 02:47:51;;;;;;;74.18;35.65;;;;;;;-1.51;100.00;99960.28;5009955;28;20032;-77
2023/01/21 02:50:22;;;;;;;76.80;34.83;;;;;;;-1.52;100.00;99948.31;5010197;28;20060;-77
2023/01/21 02:53:23;;;;;;;74.53;35.42;;;;;;;-1.52;100.00;99958.53;5009904;28;20029;-77
2023/01/21 02:55:48;;;;;;;;;;;;;;;-1.51;100.00;99945.81;4932803;29;20051;-77
2023/01/21 02:58:18;;;;;;;82.60;36.05;;;;;;;-1.58;100.00;99938.94;4932697;29;19906;-77
2023/01/21 03:01:31;;;;;;;71.80;34.88;;;;;;;-1.53;100.00;99949.19;4932254;29;20075;-77
2023/01/21 03:04:26;;;;;;;64.75;31.73;;;;;;;-1.56;100.00;99946.59;4875687;29;20116;-77
2023/01/21 03:07:03;;;;;;;71.10;34.10;;;;;;;-1.56;100.00;99951.69;4876027;29;20037;-77
2023/01/21 03:09:31;;;;;;;75.20;34.35;;;;;;;-1.61;100.00;99943.16;4875744;29;20033;-77
2023/01/21 03:12:34;;;;;;;70.07;33.85;;;;;;;-1.55;100.00;99938.09;4875948;29;20374;-77
2023/01/21 03:18:23;;;;;;;68.15;35.75;;;;;;;-1.64;100.00;99920.19;4876002;29;20040;-77
2023/01/21 03:20:57;;;;;;;74.78;35.00;;;;;;;-1.58;100.00;99928.72;4875678;29;20120;-77
2023/01/21 03:23:28;;;;;;;69.43;34.88;;;;;;;-1.60;100.00;99924.44;4875889;29;20021;-76
2023/01/21 03:25:56;;;;;;;64.47;33.00;;;;;;;-1.61;100.00;99945.72;4875735;29;20041;-76
2023/01/21 03:28:24;;;;;;;61.40;32.53;;;;;;;-1.72;100.00;99915.00;4875811;29;20489;-77
2023/01/21 03:31:00;;;;;;;64.65;34.45;;;;;;;-1.62;100.00;99933.78;4875313;29;20051;-77
2023/01/21 03:33:28;;;;;;;65.45;33.50;;;;;;;-1.60;100.00;99924.44;4921193;29;20039;-77
2023/01/21 03:35:56;;;;;;;72.47;39.30;;;;;;;-1.53;100.00;99931.28;4932112;29;20035;-76
2023/01/21 03:38:26;;;;;;;68.90;34.42;;;;;;;-1.59;100.00;99923.59;4932174;29;20023;-77
2023/01/21 03:41:00;;;;;;;66.25;37.80;;;;;;;-1.57;100.00;99921.91;4987947;28;20112;-77
2023/01/21 03:43:26;;;;;;;65.03;33.70;;;;;;;-1.58;100.00;99922.75;5011964;28;20373;-76
2023/01/21 03:46:02;;;;;;;68.85;34.70;;;;;;;-1.52;100.00;99935.56;5011600;28;20030;-77
2023/01/21 03:49:01;;;;;;;63.25;34.25;;;;;;;-1.48;100.00;99931.31;5011978;28;20101;-77
2023/01/21 03:51:32;;;;;;;63.60;33.58;;;;;;;-1.46;100.00;99935.63;5011877;28;20022;-77
2023/01/21 03:53:58;;;;;;;67.70;34.03;;;;;;;-1.51;100.00;99927.06;5011900;28;20033;-76
2023/01/21 03:56:25;;;;;;;63.83;32.08;;;;;;;-1.49;100.00;99933.03;5011867;28;20038;-77
2023/01/21 03:58:51;;;;;;;67.38;31.55;;;;;;;-1.47;100.00;99925.41;5011941;28;20033;-77
2023/01/21 04:01:16;;;;;;;68.85;33.00;;;;;;;-1.49;100.00;99919.41;5012469;28;20018;-77
2023/01/21 04:03:42;;;;;;;61.65;31.55;;;;;;;-1.52;100.00;99917.66;5011450;28;20026;-77
2023/01/21 04:06:16;;;;;;;64.90;33.13;;;;;;;-1.51;100.00;99911.75;5011464;28;20033;-77
2023/01/21 04:08:41;;;;;;;62.25;32.17;;;;;;;-1.54;100.00;99904.91;5011421;28;20018;-77
2023/01/21 04:11:07;;;;;;;76.10;34.80;;;;;;;-1.47;100.00;99920.28;5011817;28;20481;-77
2023/01/21 04:13:32;;;;;;;65.03;31.67;;;;;;;-1.54;100.00;99904.06;5011880;28;20107;-77
2023/01/21 04:15:57;;;;;;;65.95;31.63;;;;;;;-1.52;100.00;99915.13;5012575;28;20127;-77
2023/01/21 04:18:23;;;;;;;68.53;34.08;;;;;;;-1.55;100.00;99913.41;5015136;28;20533;-77
2023/01/21 04:20:48;;;;;;;67.93;31.88;;;;;;;-1.57;100.00;99906.56;5014920;28;20032;-77
2023/01/21 04:23:13;;;;;;;61.05;30.60;;;;;;;-1.53;100.00;99900.66;5015454;28;20026;-77
2023/01/21 04:25:39;;;;;;;67.50;33.92;;;;;;;-1.51;100.00;99907.47;5015040;28;20084;-77
2023/01/21 04:28:04;;;;;;;70.90;34.30;;;;;;;-1.51;100.00;99907.47;5015305;28;20049;-77
2023/01/21 04:30:29;;;;;;;60.67;30.95;;;;;;;-1.49;100.00;99912.59;5014964;28;20045;-77
2023/01/21 04:32:55;;;;;;;63.30;31.88;;;;;;;-1.51;100.00;99907.47;5014768;28;20446;-77
2023/01/21 04:35:20;;;;;;;65.80;31.98;;;;;;;-1.47;100.00;99907.50;5014779;28;20084;-77
2023/01/21 04:37:45;;;;;;;63.38;29.13;;;;;;;-1.46;100.00;99907.50;5015211;28;20026;-77
2023/01/21 04:40:11;;;;;;;66.95;33.92;;;;;;;-1.50;100.00;99898.13;5012254;28;20133;-77
2023/01/21 04:42:37;;;;;;;63.38;32.50;;;;;;;-1.41;100.00;99903.28;5012210;28;20084;-77
2023/01/21 04:45:03;;;;;;;63.17;31.00;;;;;;;-1.40;100.00;99904.97;5012253;28;20042;-77
2023/01/21 04:47:28;;;;;;;63.83;33.60;;;;;;;-1.43;100.00;99904.97;5012376;28;20034;-77
2023/01/21 04:49:53;;;;;;;63.03;31.90;;;;;;;-1.38;100.00;99894.78;5012012;28;20083;-77
2023/01/21 04:52:18;;;;;;;70.25;33.90;;;;;;;-1.37;100.00;99899.91;5012176;28;20026;-77
2023/01/21 04:54:44;;;;;;;67.03;32.60;;;;;;;-1.38;100.00;99894.78;5012001;28;20164;-77
2023/01/21 04:57:10;;;;;;;59.90;31.17;;;;;;;-1.34;100.00;99896.50;5011955;28;20056;-77
2023/01/21 04:59:36;;;;;;;63.90;32.30;;;;;;;-1.29;100.00;99902.50;5011914;28;20121;-77
2023/01/21 05:02:01;;;;;;;66.93;33.17;;;;;;;-1.27;100.00;99904.19;5012045;28;20116;-77
2023/01/21 05:04:26;;;;;;;63.78;31.83;;;;;;;-1.33;100.00;99888.00;5011938;28;20038;-77
2023/01/21 05:06:52;;;;;;;66.40;32.33;;;;;;;-1.40;100.00;99870.91;5011761;28;20030;-77
2023/01/21 05:09:17;;;;;;;60.97;32.35;;;;;;;-1.36;100.00;99882.84;5011936;28;20030;-77
2023/01/21 05:11:42;;;;;;;60.92;32.17;;;;;;;-1.27;100.00;99893.97;5011849;28;20034;-77
2023/01/21 05:14:08;;;;;;;57.10;30.17;;;;;;;-1.31;100.00;99892.28;5011832;28;20393;-77
2023/01/21 05:16:33;;;;;;;51.80;28.10;;;;;;;-1.27;100.00;99888.88;5011740;28;20033;-77
2023/01/21 05:18:59;;;;;;;61.00;30.75;;;;;;;-1.33;100.00;99882.88;5014068;28;20480;-77
2023/01/21 05:21:24;;;;;;;57.83;29.88;;;;;;;-1.34;100.00;99882.03;5014014;28;20057;-77
2023/01/21 05:23:49;;;;;;;63.13;30.92;;;;;;;-1.33;100.00;99882.88;5013897;28;20410;-76
2023/01/21 05:26:15;;;;;;;59.88;30.48;;;;;;;-1.27;100.00;99895.69;5013951;28;20400;-77
2023/01/21 05:28:40;;;;;;;53.63;29.27;;;;;;;-1.33;100.00;99883.72;5012811;28;20014;-77
2023/01/21 05:31:05;;;;;;;57.95;29.77;;;;;;;-1.32;100.00;99874.38;5013995;28;20026;-77
2023/01/21 05:33:32;;;;;;;58.38;29.10;;;;;;;-1.32;100.00;99879.47;5013811;28;20092;-77
2023/01/21 05:35:58;;;;;;;72.82;35.88;;;;;;;-1.28;100.00;99887.16;5013982;28;20022;-77
2023/01/21 05:38:23;;;;;;;65.47;33.53;;;;;;;-1.27;100.00;99880.34;5013914;28;20033;-77
2023/01/21 05:40:48;;;;;;;64.90;31.73;;;;;;;-1.26;100.00;99888.03;5013467;28;20057;-77
2023/01/21 05:43:14;;;;;;;56.60;29.33;;;;;;;-1.33;100.00;99881.19;5013869;28;20030;-77
2023/01/21 05:45:39;;;;;;;55.10;29.17;;;;;;;-1.30;100.00;99888.88;5013410;28;20013;-77
2023/01/21 05:48:05;;;;;;;57.60;29.77;;;;;;;-1.34;100.00;99879.47;5013496;28;20026;-77
2023/01/21 05:50:31;;;;;;;57.08;29.05;;;;;;;-1.27;100.00;99875.22;5013454;28;20117;-77
2023/01/21 05:52:56;;;;;;;58.42;29.25;;;;;;;-1.30;100.00;99878.66;5013389;28;20072;-77
2023/01/21 05:55:22;;;;;;;63.90;34.38;;;;;;;-1.33;100.00;99865.84;5013468;28;20374;-77
2023/01/21 05:57:47;;;;;;;65.25;32.78;;;;;;;-1.27;100.00;99868.41;5013113;28;20108;-77
2023/01/21 06:00:13;;;;;;;66.28;33.67;;;;;;;-1.30;100.00;99875.25;5013476;28;20105;-77
2023/01/21 06:02:39;;;;;;;56.92;31.33;;;;;;;-1.33;100.00;99865.00;5013066;28;20371;-77
2023/01/21 06:05:04;;;;;;;58.13;29.27;;;;;;;-1.30;100.00;99860.75;5013127;28;20024;-77
2023/01/21 06:07:30;;;;;;;55.03;29.40;;;;;;;-1.25;100.00;99876.13;5013610;28;20026;-77
2023/01/21 06:09:55;;;;;;;56.10;29.33;;;;;;;-1.25;100.00;99868.44;5012919;28;20022;-77
2023/01/21 06:12:20;;;;;;;56.80;29.33;;;;;;;-1.24;100.00;99870.16;5013487;28;20355;-77
2023/01/21 06:14:46;;;;;;;59.50;30.45;;;;;;;-1.30;100.00;99863.31;5012975;28;20028;-77
2023/01/21 06:17:11;;;;;;;55.60;29.83;;;;;;;-1.36;100.00;99842.81;5013022;28;20018;-77
2023/01/21 06:19:36;;;;;;;49.63;28.52;;;;;;;-1.21;100.00;99853.97;5012971;28;20022;-77
2023/01/21 06:22:02;;;;;;;58.80;28.13;;;;;;;-1.30;100.00;99850.53;5012920;28;20216;-77
2023/01/21 06:24:27;;;;;;;65.38;31.63;;;;;;;-1.25;100.00;99863.34;5012991;28;20108;-76
2023/01/21 06:26:52;;;;;;;52.28;26.95;;;;;;;-1.24;100.00;99848.84;5012637;28;20033;-77
2023/01/21 06:29:18;;;;;;;53.33;27.98;;;;;;;-1.27;100.00;99842.88;5012946;28;20470;-76
2023/01/21 06:31:43;;;;;;;50.45;28.38;;;;;;;-1.22;100.00;99853.13;5012614;28;20454;-77
2023/01/21 06:34:11;;;;;;;58.67;28.98;;;;;;;-1.21;100.00;99851.44;5012646;28;20048;-77
2023/01/21 06:36:37;;;;;;;56.60;29.92;;;;;;;-1.27;100.00;99837.75;5011660;28;20374;-77
2023/01/21 06:39:02;;;;;;;47.13;26.58;;;;;;;-1.21;100.00;99843.75;5012498;28;20034;-76
2023/01/21 06:41:27;;;;;;;56.40;28.58;;;;;;;-1.24;100.00;99839.47;5012795;28;20068;-76
2023/01/21 06:43:53;;;;;;;57.85;30.33;;;;;;;-1.33;100.00;99822.41;5012243;28;20485;-76
2023/01/21 06:46:18;;;;;;;59.35;29.92;;;;;;;-1.30;100.00;99830.09;5012377;28;20109;-76
2023/01/21 06:48:43;;;;;;;59.90;29.45;;;;;;;-1.24;100.00;99836.94;5012210;28;20113;-76
2023/01/21 06:51:08;;;;;;;65.72;35.58;;;;;;;-1.24;100.00;99833.53;5013285;28;20105;-76
2023/01/21 06:53:34;;;;;;;55.95;29.45;;;;;;;-1.26;100.00;99821.59;5012767;28;20096;-76
2023/01/21 06:55:59;;;;;;;58.13;28.83;;;;;;;-1.36;100.00;99808.75;5012440;28;20026;-76
2023/01/21 06:58:24;;;;;;;56.55;30.05;;;;;;;-1.29;100.00;99813.91;5011150;28;20458;-76
2023/01/21 07:00:50;;;;;;;57.80;29.58;;;;;;;-1.27;100.00;99817.31;5012179;28;20029;-76
2023/01/21 07:03:15;;;;;;;54.30;28.52;;;;;;;-1.30;100.00;99816.47;5012366;28;20029;-76
2023/01/21 07:05:41;;;;;;;60.13;30.58;;;;;;;-1.25;100.00;99814.78;5012326;28;20080;-76
2023/01/21 07:08:06;;;;;;;49.80;26.63;;;;;;;-1.28;100.00;99813.06;5012164;28;20079;-76
2023/01/21 07:10:31;;;;;;;57.72;28.15;;;;;;;-1.26;100.00;99824.16;5012371;28;20049;-76
2023/01/21 07:12:57;;;;;;;49.03;27.63;;;;;;;-1.22;100.00;99819.91;5012014;28;20018;-76
2023/01/21 07:15:22;;;;;;;54.97;28.13;;;;;;;-1.26;100.00;99816.50;5012513;28;20017;-77
2023/01/21 07:17:48;;;;;;;54.15;28.05;;;;;;;-1.20;100.00;99827.56;5011889;28;20025;-76
2023/01/21 07:20:13;;;;;;;55.65;29.25;;;;;;;-1.22;100.00;99808.81;5012061;28;20122;-76
2023/01/21 07:22:38;;;;;;;56.60;28.25;;;;;;;-1.27;100.00;99807.09;5012309;28;20030;-76
2023/01/21 07:25:04;;;;;;;52.83;29.00;;;;;;;-1.24;100.00;99792.63;5012024;28;20018;-76
2023/01/21 07:27:30;;;;;;;54.83;28.42;;;;;;;-1.19;100.00;99814.78;5012119;28;20026;-76
2023/01/21 07:29:55;;;;;;;59.55;29.73;;;;;;;-1.15;100.00;99811.41;5011639;28;20074;-76
2023/01/21 07:32:21;;;;;;;45.35;25.98;;;;;;;-1.17;100.00;99813.09;5012762;28;20029;-76
2023/01/21 07:34:46;;;;;;;47.03;25.95;;;;;;;-1.23;100.00;99805.41;5011707;28;20026;-76
2023/01/21 07:37:11;;;;;;;51.40;25.63;;;;;;;-1.22;100.00;99804.59;5012190;28;20018;-76
2023/01/21 07:39:37;;;;;;;50.85;26.95;;;;;;;-1.20;100.00;99795.19;5012077;28;20022;-76
2023/01/21 07:42:02;;;;;;;49.60;27.45;;;;;;;-1.12;100.00;99811.41;5011763;28;20036;-76
2023/01/21 07:44:28;;;;;;;55.47;28.67;;;;;;;-1.18;100.00;99798.63;5011860;28;20030;-76
2023/01/21 07:46:53;;;;;;;58.75;27.48;;;;;;;-1.13;100.00;99804.59;5011698;28;20025;-76
2023/01/21 07:49:18;;;;;;;59.40;29.35;;;;;;;-1.15;100.00;99785.84;5011847;28;20450;-76
2023/01/21 07:51:44;;;;;;;47.00;26.80;;;;;;;-1.14;100.00;99795.19;5014287;28;20049;-76
2023/01/21 07:54:11;;;;;;;48.22;27.58;;;;;;;-1.11;100.00;99797.78;5015781;28;20069;-76
2023/01/21 07:56:36;;;;;;;58.95;31.23;;;;;;;-1.06;100.00;99808.00;5015682;28;20413;-76
2023/01/21 07:59:02;;;;;;;51.13;30.17;;;;;;;-1.12;100.00;99782.44;5015101;28;20026;-76
2023/01/21 08:01:29;;;;;;;46.30;26.48;;;;;;;-1.10;100.00;99775.63;5015559;28;20072;-76
2023/01/21 08:03:55;;;;;;;52.88;27.80;;;;;;;-1.10;100.00;99766.25;5015164;28;20036;-76
2023/01/21 08:06:21;;;;;;;55.60;27.55;;;;;;;-1.05;100.00;99771.41;5015825;28;20018;-76
2023/01/21 08:08:46;;;;;;;52.80;28.02;;;;;;;-1.06;100.00;99769.66;5015350;28;20464;-76
2023/01/21 08:11:12;;;;;;;57.13;30.02;;;;;;;-0.97;100.00;99787.59;5015453;28;20092;-76
2023/01/21 08:13:37;;;;;;;55.65;28.52;;;;;;;-1.02;100.00;99771.38;5015090;28;20108;-76
2023/01/21 08:16:03;;;;;;;54.97;28.80;;;;;;;-1.01;100.00;99773.97;5014576;28;20527;-76
2023/01/21 08:18:28;;;;;;;52.38;26.80;;;;;;;-0.93;100.00;99775.66;5015294;28;20041;-76
2023/01/21 08:20:55;;;;;;;52.45;27.13;;;;;;;-1.04;100.00;99757.75;5015118;28;20500;-76
2023/01/21 08:23:20;;;;;;;49.00;27.23;;;;;;;-0.92;100.00;99775.69;5015254;28;20030;-76
2023/01/21 08:25:45;;;;;;;49.30;26.45;;;;;;;-0.96;100.00;99768.84;5014993;28;20072;-77
2023/01/21 08:28:11;;;;;;;51.28;28.55;;;;;;;-0.90;100.00;99780.78;5015238;28;20026;-77
2023/01/21 08:30:36;;;;;;;45.40;26.95;;;;;;;-0.90;100.00;99773.13;5014978;28;20046;-77
2023/01/21 08:33:02;;;;;;;52.35;28.20;;;;;;;-0.92;100.00;99772.28;5014877;28;20030;-77
2023/01/21 08:35:27;;;;;;;51.60;28.25;;;;;;;-0.92;100.00;99772.28;5015212;28;20041;-77
2023/01/21 08:37:58;;;;;;;51.47;29.85;;;;;;;-0.92;100.00;99770.56;5014848;28;20022;-76
2023/01/21 08:40:25;;;;;;;57.40;32.05;;;;;;;-0.85;100.00;99787.59;5015196;28;20462;-76
2023/01/21 08:42:51;;;;;;;47.88;25.40;;;;;;;-0.84;100.00;99788.50;5014437;28;20033;-76
2023/01/21 08:45:16;;;;;;;54.30;27.02;;;;;;;-0.83;100.00;99798.72;5014719;28;20580;-76
2023/01/21 08:47:41;;;;;;;50.42;27.67;;;;;;;-0.83;100.00;99800.41;5014875;28;20018;-75
2023/01/21 08:50:08;;;;;;;45.97;26.05;;;;;;;-0.82;100.00;99804.66;5013250;28;20065;-76
2023/01/21 08:52:34;;;;;;;47.63;27.05;;;;;;;-0.77;100.00;99818.31;5014738;28;20061;-76
2023/01/21 08:54:59;;;;;;;40.15;24.30;;;;;;;-0.77;100.00;99821.72;5014507;28;20142;-76
2023/01/21 08:57:26;;;;;;;51.15;25.52;;;;;;;-0.77;100.00;99826.84;5014892;28;20022;-76
2023/01/21 08:59:51;;;;;;;140.63;83.70;;;;;;;-0.76;100.00;99826.00;5014233;28;20373;-76
2023/01/21 09:02:17;;;;;;;57.92;34.47;;;;;;;-0.76;100.00;99822.56;5013287;28;20021;-76
2023/01/21 09:04:42;;;;;;;50.38;28.25;;;;;;;-0.75;100.00;99821.75;5014373;28;20026;-76
2023/01/21 09:07:07;;;;;;;45.78;27.52;;;;;;;-0.70;100.00;99831.97;5014298;28;20037;-76
2023/01/21 09:09:33;;;;;;;48.38;26.75;;;;;;;-0.72;100.00;99826.00;5014200;28;20021;-76
2023/01/21 09:11:58;;;;;;;45.15;26.50;;;;;;;-0.78;100.00;99812.34;5014191;28;20036;-76
2023/01/21 09:14:23;;;;;;;43.10;26.65;;;;;;;-0.62;100.00;99832.84;5014137;28;20034;-76
2023/01/21 09:16:49;;;;;;;44.63;27.15;;;;;;;-0.69;100.00;99821.75;5013985;28;20056;-75
2023/01/21 09:19:15;;;;;;;48.63;27.27;;;;;;;-0.58;100.00;99837.13;5014308;28;20668;-76
2023/01/21 09:21:40;;;;;;;48.20;26.40;;;;;;;-0.54;100.00;99826.88;5014225;28;20025;-76
2023/01/21 09:24:06;;;;;;;52.10;34.53;;;;;;;-0.50;100.00;99830.31;5013827;28;20018;-76
2023/01/21 09:26:31;;;;;;;52.22;30.17;;;;;;;-0.47;100.00;99824.31;5013955;28;20029;-76
2023/01/21 09:28:58;;;;;;;51.03;31.95;;;;;;;-0.39;100.00;99831.16;5013801;28;20049;-76
2023/01/21 09:31:26;;;;;;;39.88;26.20;;;;;;;-0.41;100.00;99824.34;5013864;28;20492;-76
2023/01/21 09:33:54;;;;;;;53.35;32.10;;;;;;;-0.39;100.00;99826.03;5013722;28;20030;-76
2023/01/21 09:36:22;;;;;;;119.05;60.15;;;;;;;-0.34;100.00;99838.81;5013903;28;20022;-76
2023/01/21 09:38:49;;;;;;;61.65;34.20;;;;;;;-0.39;100.00;99833.72;5013834;28;20041;-76
2023/01/21 09:41:46;;;;;;;64.90;39.25;;;;;;;-0.32;100.00;99835.44;5013570;28;20026;-76
2023/01/21 09:44:18;;;;;;;61.38;38.97;;;;;;;-0.34;100.00;99832.03;5010858;28;20073;-76
2023/01/21 09:46:59;;;;;;;42.42;27.55;;;;;;;-0.31;100.00;99834.56;5010904;28;20105;-76
2023/01/21 09:49:31;;;;;;;46.83;27.88;;;;;;;-0.33;100.00;99817.53;5011025;28;20045;-76
2023/01/21 09:52:15;;;;;;;48.47;30.90;;;;;;;-0.25;100.00;99818.38;5011015;28;20113;-76
2023/01/21 09:54:41;;;;;;;40.00;27.77;;;;;;;-0.22;100.00;99817.50;5011064;28;20537;-76
2023/01/21 09:57:24;;;;;;;45.33;27.50;;;;;;;-0.18;100.00;99819.22;5010683;28;20141;-76
2023/01/21 09:59:58;;;;;;;35.22;23.70;;;;;;;-0.18;100.00;99808.97;5010800;28;20095;-76
2023/01/21 10:02:59;;;;;;;39.03;25.70;;;;;;;-0.16;100.00;99809.84;5010584;28;20030;-76
2023/01/21 10:05:57;;;;;;;29.92;20.52;;;;;;;-0.17;100.00;99810.66;4914021;29;20770;-76
2023/01/21 10:08:56;;;;;;;40.38;24.85;;;;;;;-0.19;100.00;99803.00;4914233;29;20090;-76
2023/01/21 10:11:48;;;;;;;40.55;25.00;;;;;;;-0.18;100.00;99803.84;4914109;29;20028;-76
2023/01/21 10:14:54;;;;;;;30.52;20.60;;;;;;;-0.18;100.00;99801.28;4913343;29;20055;-76
2023/01/21 10:17:31;;;;;;;33.55;23.83;;;;;;;-0.14;100.00;99798.72;4914319;29;20032;-76
2023/01/21 10:20:22;;;;;;;28.42;20.05;;;;;;;-0.15;100.00;99789.34;4918362;29;20031;-76
2023/01/21 10:23:03;;;;;;;30.45;22.02;;;;;;;-0.13;100.00;99790.19;4933292;29;20038;-76
2023/01/21 10:25:31;;;;;;;31.70;21.85;;;;;;;-0.11;100.00;99793.63;4932992;29;20035;-76
2023/01/21 10:28:24;;;;;;;37.03;26.27;;;;;;;-0.07;100.00;99790.19;4932855;29;20032;-76
2023/01/21 10:30:53;;;;;;;27.33;20.55;;;;;;;-0.07;100.00;99787.63;4913845;29;20044;-76
2023/01/21 10:33:24;;;;;;;27.38;20.45;;;;;;;-0.08;100.00;99782.53;4913891;29;20083;-76
2023/01/21 10:36:08;;;;;;;;;;;;;;;-0.07;100.00;99784.22;4914422;29;20070;-76
2023/01/21 10:38:39;;;;;;;;;;;;;;;-0.01;100.00;99785.06;4928787;28;19909;-76
2023/01/21 10:41:26;;;;;;;;;;;;;;;0.03;100.00;99777.38;5010830;28;19916;-76
2023/01/21 10:44:00;;;;;;;;;;;;;;;0.06;100.00;99778.22;5010634;28;19909;-76
2023/01/21 10:46:44;;;;;;;;;;;;;;;0.10;100.00;99774.81;5010740;28;19975;-76
2023/01/21 10:49:15;;;;;;;;;;;;;;;0.16;100.00;99776.47;5010400;28;19909;-76
2023/01/21 10:51:59;;;;;;;;;;;;;;;0.17;100.00;99779.06;5010687;28;19909;-76
2023/01/21 10:54:50;;;;;;;;;;;;;;;0.11;100.00;99784.19;5010445;28;19959;-76
2023/01/21 10:57:42;;;;;;;;;;;;;;;0.06;100.00;99780.78;4951590;28;19977;-76
2023/01/21 11:00:19;;;;;;;;;;;;;;;-0.06;100.00;99775.69;4913842;29;19922;-76
2023/01/21 11:02:49;;;;;;;;;;;;;;;0.02;100.00;99778.22;4914037;29;19911;-76
2023/01/21 11:05:15;;;;;;;;;;;;;;;-0.01;100.00;99779.94;4913635;29;19949;-76
2023/01/21 11:07:41;;;;;;;;;;;;;;;-0.01;100.00;99772.25;4894543;29;19911;-76
2023/01/21 11:10:07;;;;;;;;;;;;;;;0.02;100.00;99771.41;4876199;29;19911;-76
2023/01/21 11:12:32;;;;;;;;;;;;;;;-0.02;100.00;99772.25;4875298;29;19931;-76
2023/01/21 11:15:00;;;;;;;;;;;;;;;-0.01;100.00;99764.56;4875884;29;20618;-76
2023/01/21 11:17:32;;;;;;;;;;;;;;;0.04;100.00;99769.69;4876066;29;19954;-76
2023/01/21 11:19:58;;;;;;;;;;;;;;;0.07;100.00;99766.28;4875814;29;19918;-76
2023/01/21 11:22:24;;;;;;;;;;;;;;;0.08;100.00;99768.81;4876233;29;19934;-76
2023/01/21 11:24:51;;;;;;;;;;;;;;;0.07;100.00;99768.81;4875998;29;20390;-76
2023/01/21 11:27:37;;;;;;;;;;;;;;;0.05;100.00;99768.00;4878982;29;19918;-76
2023/01/21 11:30:03;;;;;;;;;;;;;;;0.03;100.00;99759.44;4879019;29;19916;-76
2023/01/21 11:32:29;;;;;;;;;;;;;;;0.07;100.00;99763.72;4879877;29;19945;-76